Time;durP1;ratioP1;P1;durP2;ratioP2;P2;SDS_P1;SDS_P2;PMS_P1;PMS_P2;Temp;Humidity;BMP_temperature;BMP_pressure;BME280_temperature;BME280_humidity;BME280_pressure;Samples;Min_cycle;Max_cycle;Signal;HPM_P1;HPM_P2
2023/10/25 00:01:36;;;;;;;21.07;18.40;;;11.60;96.90;;;12.97;73.55;100094.19;3080853;46;20444;-68
2023/10/25 00:04:05;;;;;;;22.90;18.83;;;11.60;96.90;;;12.95;73.56;100093.59;3083499;46;20482;-65
2023/10/25 00:06:33;;;;;;;23.60;18.30;;;11.60;96.90;;;12.94;73.34;100076.94;3085981;46;20518;-67
2023/10/25 00:09:02;;;;;;;22.50;18.60;;;11.60;97.00;;;12.94;73.45;100084.84;3085540;46;20463;-67
2023/10/25 00:11:31;;;;;;;19.57;17.00;;;11.60;96.90;;;12.94;73.21;100084.84;3085840;46;20428;-67
2023/10/25 00:13:59;;;;;;;22.20;18.53;;;11.50;97.20;;;12.93;73.44;100083.25;3085833;46;20575;-67
2023/10/25 00:16:27;;;;;;;22.77;18.77;;;11.60;96.90;;;12.93;73.28;100079.78;3085717;46;21085;-67
2023/10/25 00:18:56;;;;;;;21.90;18.13;;;11.60;96.90;;;12.94;73.24;100079.56;3085785;46;20443;-66
2023/10/25 00:21:24;;;;;;;23.70;18.57;;;11.60;96.90;;;12.93;73.36;100088.53;3085806;46;20508;-67
2023/10/25 00:23:53;;;;;;;22.90;17.60;;;11.50;96.80;;;12.92;73.00;100084.25;3085781;46;21065;-66
2023/10/25 00:26:21;;;;;;;19.40;16.67;;;11.50;96.80;;;12.90;73.44;100088.94;3086154;46;20455;-66
2023/10/25 00:28:49;;;;;;;21.30;18.07;;;11.50;96.80;;;12.91;73.30;100095.81;3085266;46;20433;-67
2023/10/25 00:31:18;;;;;;;21.53;17.67;;;11.50;96.90;;;12.91;73.13;100098.47;3085249;46;20434;-67
2023/10/25 00:33:46;;;;;;;22.70;17.60;;;11.50;96.80;;;12.88;73.21;100101.53;3085534;46;21226;-67
2023/10/25 00:36:15;;;;;;;20.43;17.90;;;11.50;96.80;;;12.84;73.32;100106.41;3085278;46;20456;-67
2023/10/25 00:38:44;;;;;;;21.43;17.20;;;11.50;96.70;;;12.84;73.34;100110.84;3085577;46;20564;-67
2023/10/25 00:41:12;;;;;;;20.13;17.80;;;11.50;97.10;;;12.84;73.55;100116.16;3085364;46;20442;-67
2023/10/25 00:43:40;;;;;;;19.17;16.27;;;11.50;96.80;;;12.84;73.16;100110.84;3085537;46;20431;-67
2023/10/25 00:46:25;;;;;;;20.53;17.57;;;11.40;96.70;;;12.77;73.22;100110.88;3085774;46;20473;-67
2023/10/25 00:48:59;;;;;;;22.60;18.20;;;11.40;96.80;;;12.77;73.56;100110.06;3085377;46;20447;-67
2023/10/25 00:51:30;;;;;;;24.37;18.13;;;11.40;96.80;;;12.77;73.38;100118.78;3085493;46;20447;-67
2023/10/25 00:54:03;;;;;;;20.63;17.67;;;11.40;96.80;;;12.78;73.46;100109.88;3085036;46;20431;-66
2023/10/25 00:56:33;;;;;;;23.20;18.50;;;11.40;96.90;;;12.77;73.32;100110.88;3085509;46;21092;-67
2023/10/25 00:59:04;;;;;;;19.40;16.73;;;11.40;96.90;;;12.78;73.61;100101.13;3084435;46;20545;-68
2023/10/25 01:01:33;;;;;;;21.97;18.27;;;11.40;96.90;;;12.79;73.46;100097.44;3084707;46;21091;-68
2023/10/25 01:04:02;;;;;;;20.30;17.20;;;11.40;96.90;;;12.80;73.25;100099.91;3085349;46;20451;-68
2023/10/25 01:06:31;;;;;;;26.03;17.67;;;11.40;96.90;;;12.82;73.46;100099.69;3085135;46;20455;-67
2023/10/25 01:08:59;;;;;;;23.57;17.93;;;11.40;96.90;;;12.81;73.21;100101.50;3084751;46;20455;-67
2023/10/25 01:11:27;;;;;;;24.20;18.27;;;11.40;97.20;;;12.81;73.18;100098.09;3085209;46;20950;-66
2023/10/25 01:13:56;;;;;;;24.17;17.93;;;11.30;96.80;;;12.81;73.38;100090.94;3085384;46;20457;-66
2023/10/25 01:16:24;;;;;;;23.17;17.97;;;11.40;96.90;;;12.82;73.10;100094.41;3082122;46;21111;-67
2023/10/25 01:18:54;;;;;;;23.23;18.03;;;11.30;96.90;;;12.83;72.94;100098.69;3082688;46;20462;-67
2023/10/25 01:21:22;;;;;;;20.57;17.37;;;11.40;96.90;;;12.83;73.14;100090.75;3082673;46;20548;-68
2023/10/25 01:23:55;;;;;;;19.90;17.10;;;11.30;96.80;;;12.81;73.02;100084.88;3082669;46;20427;-67
2023/10/25 01:26:23;;;;;;;22.07;17.90;;;11.40;96.80;;;12.80;72.89;100089.34;3082844;46;20428;-65
2023/10/25 01:28:52;;;;;;;20.67;17.83;;;11.30;96.80;;;12.77;72.81;100087.09;3081476;46;21107;-68
2023/10/25 01:31:20;;;;;;;24.83;18.43;;;11.30;96.70;;;12.77;72.77;100081.00;3082256;46;20459;-67
2023/10/25 01:33:51;;;;;;;20.97;16.60;;;11.30;96.70;;;12.77;72.83;100081.00;3082286;46;21014;-67
2023/10/25 01:36:19;;;;;;;25.50;18.57;;;11.30;96.80;;;12.77;72.92;100079.19;3082272;46;20509;-67
2023/10/25 01:38:47;;;;;;;24.00;17.77;;;11.30;96.80;;;12.76;72.89;100076.75;3081945;46;21053;-68
2023/10/25 01:41:16;;;;;;;22.60;17.93;;;11.30;96.80;;;12.75;72.79;100080.41;3082207;46;20569;-68
2023/10/25 01:43:45;;;;;;;24.63;18.67;;;11.30;96.70;;;12.71;72.60;100079.19;3082495;46;21012;-67
2023/10/25 01:46:13;;;;;;;18.50;15.53;;;11.30;96.70;;;12.68;72.61;100079.59;3082737;46;20521;-68
2023/10/25 01:48:44;;;;;;;20.97;16.37;;;11.30;96.70;;;12.65;72.69;100080.81;3082309;46;20485;-67
2023/10/25 01:51:12;;;;;;;20.83;17.03;;;11.20;96.60;;;12.64;72.95;100083.66;3081417;46;20447;-67
2023/10/25 01:53:41;;;;;;;20.57;17.50;;;11.20;97.00;;;12.64;73.01;100086.31;3082353;46;20452;-65
2023/10/25 01:56:09;;;;;;;23.10;17.47;;;11.20;96.70;;;12.65;72.93;100090.56;3082355;46;20593;-66
2023/10/25 01:58:37;;;;;;;25.70;17.23;;;11.20;96.80;;;12.64;73.00;100088.94;3082212;46;20463;-67
2023/10/25 02:01:06;;;;;;;22.43;16.40;;;11.20;96.70;;;12.63;72.43;100085.50;3081917;46;20482;-67
2023/10/25 02:03:35;;;;;;;20.27;16.60;;;11.10;96.70;;;12.62;72.67;100080.44;3082687;46;20512;-66
2023/10/25 02:06:14;;;;;;;21.53;16.97;;;11.10;96.60;;;12.57;72.31;100085.50;3081994;46;20990;-65
2023/10/25 02:08:43;;;;;;;22.57;17.67;;;11.10;96.50;;;12.54;72.68;100084.06;3081382;46;20456;-68
2023/10/25 02:11:11;;;;;;;22.97;18.00;;;11.10;96.50;;;12.49;72.60;100090.97;3081650;46;20467;-67
2023/10/25 02:13:40;;;;;;;22.63;17.20;;;11.10;96.50;;;12.45;72.54;100092.41;3082372;46;20431;-66
2023/10/25 02:16:17;;;;;;;21.43;16.73;;;11.00;96.40;;;12.40;72.75;100092.19;3082015;46;20477;-68
2023/10/25 02:18:46;;;;;;;21.80;17.77;;;11.00;96.50;;;12.41;72.89;100093.81;3081920;46;20503;-65
2023/10/25 02:21:14;;;;;;;23.77;17.33;;;11.00;96.50;;;12.38;72.63;100088.94;3081695;46;21126;-65
2023/10/25 02:23:43;;;;;;;22.83;17.97;;;10.90;96.50;;;12.36;72.68;100088.34;3082119;46;20499;-67
2023/10/25 02:26:11;;;;;;;23.00;16.87;;;10.90;96.50;;;12.37;72.78;100082.84;3081553;46;20482;-67
2023/10/25 02:28:40;;;;;;;22.83;16.90;;;10.90;96.60;;;12.36;72.77;100083.84;3081322;46;20451;-67
2023/10/25 02:31:08;;;;;;;22.10;16.57;;;10.80;96.60;;;12.35;72.56;100084.88;3081555;46;20514;-66
2023/10/25 02:33:38;;;;;;;22.03;16.20;;;10.90;96.70;;;12.32;72.41;100087.91;3082208;46;20431;-67
2023/10/25 02:36:06;;;;;;;23.17;17.37;;;10.80;96.50;;;12.28;72.52;100084.06;3081568;46;20431;-69
2023/10/25 02:38:35;;;;;;;20.53;17.57;;;10.80;96.50;;;12.24;72.60;100081.00;3081996;46;20456;-67
2023/10/25 02:41:03;;;;;;;23.87;17.57;;;10.80;96.50;;;12.23;72.71;100076.75;3081590;46;21094;-67
2023/10/25 02:43:32;;;;;;;20.97;15.93;;;10.80;96.50;;;12.21;72.70;100078.78;3081698;46;21013;-67
2023/10/25 02:46:03;;;;;;;20.77;15.67;;;10.80;96.60;;;12.18;72.84;100079.19;3081705;46;20447;-68
2023/10/25 02:48:32;;;;;;;22.97;16.93;;;10.70;96.60;;;12.17;72.76;100079.41;3080744;46;20436;-66
2023/10/25 02:51:02;;;;;;;20.13;16.43;;;10.70;96.60;;;12.14;72.98;100071.88;3081299;46;20513;-67
2023/10/25 02:53:31;;;;;;;23.50;16.50;;;10.70;96.60;;;12.11;73.00;100067.00;3081785;46;20431;-65
2023/10/25 02:56:07;;;;;;;21.73;16.67;;;10.70;96.60;;;12.08;73.21;100067.38;3081319;46;20456;-66
2023/10/25 02:58:36;;;;;;;21.43;17.03;;;10.70;96.70;;;12.06;73.19;100064.97;3080713;46;20582;-69
2023/10/25 03:01:05;;;;;;;24.00;16.77;;;10.60;96.70;;;12.04;73.49;100058.25;3081480;46;20447;-66
2023/10/25 03:03:34;;;;;;;20.20;15.50;;;10.70;96.70;;;12.04;73.51;100060.91;3081694;46;20493;-67
2023/10/25 03:06:03;;;;;;;18.80;15.00;;;10.70;96.70;;;12.02;73.53;100058.47;3081741;46;20454;-68
2023/10/25 03:08:32;;;;;;;21.83;16.40;;;10.60;96.70;;;12.01;73.44;100058.66;3080758;46;20512;-67
2023/10/25 03:11:00;;;;;;;21.13;16.13;;;10.60;96.70;;;11.98;73.61;100061.72;3081140;46;20471;-67
2023/10/25 03:13:28;;;;;;;22.47;16.17;;;10.60;96.80;;;11.96;73.63;100059.25;3082976;46;20430;-69
2023/10/25 03:15:57;;;;;;;23.47;17.07;;;10.60;96.80;;;11.96;73.58;100059.25;3081082;46;20432;-66
2023/10/25 03:18:26;;;;;;;21.37;16.40;;;10.60;96.80;;;11.98;73.78;100051.94;3081309;46;20427;-66
2023/10/25 03:20:55;;;;;;;26.37;17.03;;;10.60;96.90;;;11.99;73.81;100050.13;3081140;46;20440;-67
2023/10/25 03:23:23;;;;;;;20.87;15.77;;;10.60;96.90;;;12.01;73.85;100054.19;3081239;46;20482;-67
2023/10/25 03:25:51;;;;;;;25.67;16.93;;;10.60;96.90;;;12.00;73.77;100055.22;3080853;46;20491;-67
2023/10/25 03:28:20;;;;;;;22.77;16.77;;;10.60;96.90;;;12.01;73.75;100046.28;3080255;46;20452;-65
2023/10/25 03:30:48;;;;;;;22.40;16.27;;;10.60;96.90;;;12.03;73.70;100053.97;3080913;46;20619;-66
2023/10/25 03:33:17;;;;;;;23.23;17.80;;;10.60;96.90;;;12.02;73.54;100047.91;3081636;46;20439;-67
2023/10/25 03:35:55;;;;;;;19.73;15.90;;;10.60;96.90;;;12.00;73.48;100054.41;3081157;46;21047;-66
2023/10/25 03:38:24;;;;;;;19.13;15.07;;;10.60;96.90;;;12.02;73.62;100047.09;3080635;46;20485;-67
2023/10/25 03:41:06;;;;;;;20.37;16.50;;;10.60;96.90;;;12.00;73.32;100044.69;3082312;46;20443;-66
2023/10/25 03:43:36;;;;;;;24.40;17.73;;;10.60;96.90;;;12.02;73.38;100047.91;3081683;46;20429;-66
2023/10/25 03:46:09;;;;;;;22.87;15.83;;;10.60;96.90;;;12.03;73.59;100044.25;3081051;46;20513;-67
2023/10/25 03:48:39;;;;;;;20.67;16.73;;;10.60;96.90;;;12.03;73.28;100049.53;3081011;46;20558;-69
2023/10/25 03:51:10;;;;;;;21.77;15.27;;;10.60;96.90;;;12.02;73.30;100044.47;3079971;46;20462;-68
2023/10/25 03:53:40;;;;;;;19.83;15.80;;;10.60;96.90;;;12.02;73.63;100045.28;3081020;46;20431;-68
2023/10/25 03:56:08;;;;;;;21.47;16.33;;;10.60;96.90;;;12.02;73.37;100037.38;3081526;46;20436;-66
2023/10/25 03:58:36;;;;;;;21.47;16.60;;;10.60;96.90;;;12.01;73.63;100042.81;3080862;46;20455;-67
2023/10/25 04:01:06;;;;;;;20.43;16.43;;;10.60;96.90;;;11.99;73.37;100035.13;3080692;46;20456;-66
2023/10/25 04:03:38;;;;;;;20.60;15.40;;;10.60;96.80;;;11.99;73.63;100037.75;3081116;46;20449;-67
2023/10/25 04:06:08;;;;;;;20.20;15.77;;;10.60;96.80;;;12.01;73.58;100034.91;3080542;46;20439;-68
2023/10/25 04:08:37;;;;;;;20.37;15.83;;;10.60;96.80;;;12.00;73.33;100044.69;3080538;46;20509;-68
2023/10/25 04:11:07;;;;;;;17.10;14.67;;;10.60;96.80;;;12.01;73.35;100041.00;3080581;46;20465;-66
2023/10/25 04:13:35;;;;;;;21.50;16.73;;;10.60;96.80;;;12.00;73.63;100039.41;3081251;46;20549;-67
2023/10/25 04:16:07;;;;;;;21.63;14.43;;;10.60;96.80;;;11.98;73.53;100040.63;3080735;46;20427;-68
2023/10/25 04:18:37;;;;;;;19.60;15.80;;;10.60;96.80;;;11.93;73.51;100038.53;3080754;46;20504;-67
2023/10/25 04:21:11;;;;;;;25.13;16.47;;;10.60;96.80;;;11.93;73.49;100033.28;3079589;46;21018;-66
2023/10/25 04:23:40;;;;;;;20.97;16.07;;;10.60;96.80;;;11.93;73.36;100030.63;3081070;46;20457;-66
2023/10/25 04:26:13;;;;;;;18.73;14.97;;;10.60;96.80;;;11.93;73.53;100035.91;3080754;46;20428;-67
2023/10/25 04:28:44;;;;;;;20.80;15.70;;;10.60;96.80;;;11.93;73.41;100043.81;3080022;46;20472;-66
2023/10/25 04:31:12;;;;;;;21.60;15.53;;;10.50;96.80;;;11.94;73.53;100027.00;3080367;46;20455;-67
2023/10/25 04:33:41;;;;;;;20.33;15.33;;;10.50;96.80;;;11.95;73.71;100031.28;3080641;46;20427;-66
2023/10/25 04:36:09;;;;;;;22.07;16.23;;;10.50;96.80;;;11.95;73.51;100026.00;3080427;46;20439;-65
2023/10/25 04:38:38;;;;;;;22.57;15.40;;;10.50;96.80;;;11.92;73.64;100029.03;3080379;46;20518;-67
2023/10/25 04:41:06;;;;;;;20.57;15.00;;;10.50;96.80;;;11.92;73.52;100015.84;3080322;46;20593;-67
2023/10/25 04:43:35;;;;;;;18.43;15.07;;;10.50;96.80;;;11.92;73.70;100021.13;3080539;46;20440;-67
2023/10/25 04:46:04;;;;;;;21.03;14.80;;;10.50;96.80;;;11.91;73.71;100019.47;3079895;46;20605;-67
2023/10/25 04:48:32;;;;;;;20.50;17.10;;;10.50;96.80;;;11.93;73.65;100021.94;3079247;46;20438;-66
2023/10/25 04:51:03;;;;;;;23.40;16.57;;;10.50;96.80;;;11.91;73.74;100030.03;3081250;46;20443;-67
2023/10/25 04:53:32;;;;;;;20.10;15.47;;;10.50;96.90;;;11.90;73.61;100023.16;3083031;46;20456;-66
2023/10/25 04:56:01;;;;;;;22.17;15.73;;;10.50;96.80;;;11.89;73.70;100021.50;3083022;46;20426;-66
2023/10/25 04:58:29;;;;;;;20.53;16.43;;;10.50;96.80;;;11.89;73.69;100026.78;3082235;46;21017;-67
2023/10/25 05:00:58;;;;;;;19.00;15.83;;;10.50;96.80;;;11.90;73.77;100032.88;3082617;46;20442;-67
2023/10/25 05:03:26;;;;;;;21.33;16.37;;;10.50;96.80;;;11.90;73.69;100033.69;3082984;46;20432;-68
2023/10/25 05:05:55;;;;;;;18.23;14.70;;;10.50;96.80;;;11.91;73.66;100030.03;3082727;46;20451;-66
2023/10/25 05:08:23;;;;;;;21.00;15.53;;;10.50;96.90;;;11.89;73.38;100026.78;3082339;46;20427;-66
2023/10/25 05:10:56;;;;;;;20.03;16.73;;;10.50;96.80;;;11.89;73.52;100031.25;3082335;46;20579;-66
2023/10/25 05:13:24;;;;;;;22.63;15.93;;;10.50;96.80;;;11.87;73.53;100028.00;3081728;46;20552;-66
2023/10/25 05:15:53;;;;;;;20.80;15.67;;;10.50;96.80;;;11.85;73.48;100022.94;3082552;46;20428;-67
2023/10/25 05:18:23;;;;;;;20.47;15.33;;;10.50;96.80;;;11.83;73.60;100022.31;3082275;46;20428;-67
2023/10/25 05:20:59;;;;;;;19.47;15.93;;;10.50;96.80;;;11.81;73.47;100013.00;3082458;46;21098;-67
2023/10/25 05:23:34;;;;;;;21.50;16.03;;;10.40;96.70;;;11.79;73.63;100010.53;3082017;46;20512;-67
2023/10/25 05:26:03;;;;;;;20.27;15.27;;;10.40;96.70;;;11.81;73.52;100010.34;3082587;46;20993;-68
2023/10/25 05:28:33;;;;;;;22.17;16.40;;;10.40;96.80;;;11.81;73.54;100010.34;3081480;46;20447;-66
2023/10/25 05:31:03;;;;;;;22.37;15.77;;;10.40;96.80;;;11.79;73.38;100005.25;3081964;46;21105;-67
2023/10/25 05:33:32;;;;;;;18.40;14.50;;;10.40;96.80;;;11.79;73.44;100015.81;3082219;46;20956;-68
2023/10/25 05:36:01;;;;;;;18.67;14.40;;;10.40;96.80;;;11.80;73.33;100017.44;3081933;46;20456;-68
2023/10/25 05:38:30;;;;;;;18.70;14.93;;;10.40;96.80;;;11.79;73.37;100015.81;3081314;46;20521;-67
2023/10/25 05:40:59;;;;;;;18.77;14.93;;;10.40;96.80;;;11.79;73.40;100021.09;3081895;46;20561;-65
2023/10/25 05:43:33;;;;;;;17.30;13.93;;;10.30;96.80;;;11.79;73.35;100023.72;3081989;46;20475;-65
2023/10/25 05:46:02;;;;;;;23.23;15.80;;;10.30;96.70;;;11.78;73.33;100018.66;3081655;46;20561;-67
2023/10/25 05:48:31;;;;;;;17.50;14.03;;;10.30;96.70;;;11.78;73.29;100011.56;3081838;46;21099;-67
2023/10/25 05:51:06;;;;;;;16.80;14.30;;;10.30;96.70;;;11.78;73.24;100010.75;3082054;46;20464;-67
2023/10/25 05:53:35;;;;;;;18.13;14.17;;;10.30;96.80;;;11.78;73.24;100014.19;3082395;46;20463;-67
2023/10/25 05:56:05;;;;;;;18.73;14.53;;;10.30;96.70;;;11.79;73.39;100020.28;3082174;46;21019;-67
2023/10/25 05:58:33;;;;;;;17.70;13.80;;;10.30;96.70;;;11.78;73.02;100016.03;3081720;46;20454;-66
2023/10/25 06:01:09;;;;;;;18.40;14.23;;;10.30;96.70;;;11.73;73.04;100019.25;3081675;46;20441;-67
2023/10/25 06:03:46;;;;;;;19.30;13.43;;;10.30;96.70;;;11.73;72.88;100027.16;3082186;46;20450;-68
2023/10/25 06:06:20;;;;;;;18.27;13.77;;;10.30;96.70;;;11.75;73.18;100022.50;3081019;46;20435;-66
2023/10/25 06:08:49;;;;;;;18.57;14.07;;;10.30;96.70;;;11.77;73.32;100030.19;3081630;46;20981;-67
2023/10/25 06:11:18;;;;;;;16.33;14.63;;;10.30;96.70;;;11.78;73.04;100024.75;3081745;46;20524;-67
2023/10/25 06:13:46;;;;;;;20.93;14.63;;;10.30;96.80;;;11.79;73.00;100015.81;3081893;46;20427;-66
2023/10/25 06:16:15;;;;;;;16.57;13.87;;;10.30;96.80;;;11.79;72.54;100012.38;3081763;46;20457;-64
2023/10/25 06:18:43;;;;;;;18.90;13.57;;;10.30;96.70;;;11.79;72.83;100013.16;3081234;46;21069;-67
2023/10/25 06:21:12;;;;;;;21.40;13.73;;;10.30;96.70;;;11.79;72.73;100017.66;3081775;46;21066;-65
2023/10/25 06:23:40;;;;;;;17.80;13.50;;;10.30;96.60;;;11.79;72.65;100015.81;3081816;46;21001;-65
2023/10/25 06:26:09;;;;;;;18.30;14.00;;;10.30;96.60;;;11.78;72.69;100014.19;3082212;46;20459;-68
2023/10/25 06:28:37;;;;;;;17.77;13.27;;;10.20;96.60;;;11.78;72.30;100022.13;3081550;46;20513;-68
2023/10/25 06:31:05;;;;;;;15.23;12.67;;;10.30;96.60;;;11.77;72.39;100023.09;3081942;46;20440;-66
2023/10/25 06:33:34;;;;;;;15.53;12.47;;;10.20;96.50;;;11.75;72.78;100022.50;3081193;46;20991;-66
2023/10/25 06:36:03;;;;;;;21.07;13.97;;;10.20;96.50;;;11.74;72.78;100022.72;3081380;46;21165;-67
2023/10/25 06:38:32;;;;;;;18.43;13.50;;;10.20;96.50;;;11.74;72.45;100018.25;3082110;46;20986;-67
2023/10/25 06:41:01;;;;;;;21.50;14.93;;;10.20;96.50;;;11.76;72.50;100016.22;3081402;46;21120;-67
2023/10/25 06:43:31;;;;;;;21.43;14.17;;;10.20;96.50;;;11.77;72.46;100017.84;3081538;46;20431;-67
2023/10/25 06:46:00;;;;;;;17.63;14.03;;;10.20;96.50;;;11.77;72.39;100012.56;3081552;46;22626;-67
2023/10/25 06:48:33;;;;;;;18.67;14.00;;;10.20;96.50;;;11.80;72.69;100017.44;3081535;46;21100;-66
2023/10/25 06:51:08;;;;;;;20.20;16.30;;;10.20;96.60;;;11.79;72.20;100021.09;3081365;46;20440;-66
2023/10/25 06:53:37;;;;;;;18.87;14.00;;;10.20;96.60;;;11.79;72.32;100018.44;3081949;46;20436;-66
2023/10/25 06:56:07;;;;;;;18.17;13.57;;;10.30;96.50;;;11.80;72.29;100014.81;3081943;46;20448;-66
2023/10/25 06:58:37;;;;;;;17.23;13.33;;;10.20;96.50;;;11.84;72.78;100018.66;3081498;46;20428;-66
2023/10/25 07:01:07;;;;;;;18.17;14.03;;;10.30;96.70;;;11.88;72.72;100019.91;3081092;46;20442;-67
2023/10/25 07:03:37;;;;;;;15.90;12.50;;;10.30;96.90;;;11.95;72.61;100010.19;3081510;46;20454;-65
2023/10/25 07:06:06;;;;;;;29.17;23.60;;;10.30;96.90;;;12.03;72.72;100007.31;3080534;46;20429;-67
2023/10/25 07:08:35;;;;;;;21.00;15.43;;;10.40;97.00;;;12.15;73.01;100005.72;3081448;46;20427;-66
2023/10/25 07:11:03;;;;;;;21.93;14.63;;;10.40;97.20;;;12.28;72.86;100010.19;3081215;46;20443;-65
2023/10/25 07:13:32;;;;;;;19.70;13.17;;;10.50;97.20;;;12.41;72.71;100009.38;3079461;46;20427;-66
2023/10/25 07:16:19;;;;;;;18.77;12.93;;;10.60;97.30;;;12.49;72.20;100006.50;3081112;46;20494;-67
2023/10/25 07:18:48;;;;;;;17.63;11.97;;;10.70;97.10;;;12.53;72.04;100013.81;3081194;46;20472;-67
2023/10/25 07:21:16;;;;;;;17.73;11.97;;;10.80;96.90;;;12.60;72.42;100024.38;3081034;46;20465;-66
2023/10/25 07:23:45;;;;;;;15.40;11.27;;;10.90;96.90;;;12.70;71.86;100027.41;3081486;46;20451;-68
2023/10/25 07:26:13;;;;;;;13.63;11.13;;;11.00;96.90;;;12.76;71.27;100023.94;3081564;46;20430;-67
2023/10/25 07:28:41;;;;;;;14.47;12.73;;;11.00;96.60;;;12.80;70.65;100027.78;3080671;46;20649;-67
2023/10/25 07:31:10;;;;;;;12.47;11.17;;;11.10;96.30;;;12.80;70.28;100018.03;3080079;46;21013;-67
2023/10/25 07:33:40;;;;;;;21.87;19.50;;;11.20;96.10;;;12.85;70.97;100028.81;3081286;46;20478;-66
2023/10/25 07:36:08;;;;;;;16.43;12.50;;;11.20;96.10;;;12.89;70.32;100032.66;3080799;46;20629;-67
2023/10/25 07:38:36;;;;;;;18.50;13.70;;;11.30;96.00;;;12.91;70.15;100029.78;3080804;46;20505;-67
2023/10/25 07:41:05;;;;;;;16.20;12.77;;;11.30;95.90;;;12.91;69.82;100032.44;3080484;46;20441;-67
2023/10/25 07:43:33;;;;;;;21.33;12.83;;;11.30;95.80;;;12.89;69.76;100029.19;3081421;46;20515;-67
2023/10/25 07:46:02;;;;;;;21.23;14.57;;;11.30;95.60;;;12.93;70.42;100025.13;3081227;46;20427;-68
2023/10/25 07:48:30;;;;;;;17.13;11.60;;;11.30;95.80;;;12.94;69.99;100026.75;3080671;46;20528;-67
2023/10/25 07:51:04;;;;;;;16.07;8.60;;;11.30;95.60;;;12.93;69.70;100022.50;3081087;46;20451;-68
2023/10/25 07:53:32;;;;;;;14.33;10.60;;;11.30;95.40;;;12.91;69.32;100024.50;3080527;46;20579;-67
2023/10/25 07:56:05;;;;;;;14.13;9.90;;;11.40;95.40;;;12.90;69.45;100025.53;3080850;46;20566;-68
2023/10/25 07:58:36;;;;;;;12.20;9.77;;;11.30;95.30;;;12.91;70.09;100016.59;3080823;46;20432;-67
2023/10/25 08:01:05;;;;;;;13.57;10.17;;;11.30;95.40;;;12.96;70.04;100016.78;3080297;46;20519;-67
2023/10/25 08:03:35;;;;;;;12.03;9.60;;;11.30;95.50;;;13.01;70.11;100016.97;3081050;46;21076;-67
2023/10/25 08:06:05;;;;;;;10.67;8.87;;;11.40;95.70;;;13.09;69.90;100021.25;3080976;46;20427;-67
2023/10/25 08:08:33;;;;;;;18.70;8.37;;;11.40;95.60;;;13.14;69.62;100016.16;3080409;46;21166;-67
2023/10/25 08:11:05;;;;;;;10.77;8.23;;;11.50;95.60;;;13.17;69.63;100016.53;3080605;46;20439;-66
2023/10/25 08:13:35;;;;;;;10.60;8.33;;;11.50;95.90;;;13.25;69.69;100018.94;3080847;46;20443;-67
2023/10/25 08:16:04;;;;;;;9.67;8.37;;;11.60;95.90;;;13.40;69.49;100016.88;3080284;46;20536;-67
2023/10/25 08:18:34;;;;;;;10.73;8.53;;;11.60;95.70;;;13.49;69.26;100005.03;3080670;46;20439;-66
2023/10/25 08:21:03;;;;;;;10.33;8.73;;;11.70;95.70;;;13.60;69.29;99994.81;3080289;46;20551;-67
2023/10/25 08:23:34;;;;;;;9.13;8.10;;;11.80;95.80;;;13.69;69.07;99996.16;3080477;46;21029;-67
2023/10/25 08:26:04;;;;;;;12.50;7.60;;;11.90;95.70;;;13.78;69.01;99997.53;3082629;46;20436;-68
2023/10/25 08:28:32;;;;;;;12.40;8.53;;;11.90;95.60;;;13.79;67.68;99994.66;3082467;46;20912;-66
2023/10/25 08:31:13;;;;;;;10.00;7.30;;;12.00;95.00;;;13.80;67.95;99995.47;3083024;46;20438;-68
2023/10/25 08:33:42;;;;;;;8.50;7.63;;;12.10;95.00;;;13.82;67.38;99988.13;3083048;46;21030;-67
2023/10/25 08:36:10;;;;;;;7.93;7.13;;;12.10;94.60;;;13.84;67.74;99986.06;3082506;46;21013;-66
2023/10/25 08:38:39;;;;;;;9.77;6.50;;;12.20;94.70;;;13.84;67.56;99980.78;3082593;46;20999;-68
2023/10/25 08:41:09;;;;;;;8.63;7.00;;;12.20;94.40;;;13.91;67.69;99981.53;3082456;46;20565;-69
2023/10/25 08:43:40;;;;;;;9.60;6.80;;;12.20;94.60;;;13.95;67.48;99978.25;3083021;46;20427;-68
2023/10/25 08:46:09;;;;;;;7.60;6.50;;;12.30;94.50;;;14.02;67.58;99975.59;3082705;44;20446;-68
2023/10/25 08:48:38;;;;;;;8.47;7.13;;;12.40;94.50;;;14.12;67.58;99983.84;3081938;46;20995;-68
2023/10/25 08:51:08;;;;;;;14.83;9.63;;;12.40;94.50;;;14.23;67.37;99991.09;3082496;46;20514;-67
2023/10/25 08:53:37;;;;;;;9.77;5.90;;;12.50;94.70;;;14.24;66.61;99984.75;3083239;46;20440;-68
2023/10/25 08:56:06;;;;;;;8.37;6.10;;;12.50;94.20;;;14.30;66.81;99986.56;3082803;46;20514;-67
2023/10/25 08:58:35;;;;;;;8.90;6.10;;;12.60;94.30;;;14.31;66.35;99982.88;3082517;46;20422;-66
2023/10/25 09:01:03;;;;;;;9.80;5.90;;;12.60;93.90;;;14.29;66.18;99986.78;3082463;46;20459;-65
2023/10/25 09:03:31;;;;;;;6.77;6.17;;;12.70;93.80;;;14.32;66.33;99983.69;3083031;46;20455;-68
2023/10/25 09:06:06;;;;;;;9.63;6.20;;;12.70;93.80;;;14.36;66.32;99987.56;3082652;46;20572;-66
2023/10/25 09:08:36;;;;;;;10.27;7.30;;;12.70;93.90;;;14.46;66.34;99979.91;3082699;46;20516;-66
2023/10/25 09:11:09;;;;;;;9.40;6.20;;;12.70;94.00;;;14.61;66.38;99973.25;3082374;46;20646;-67
2023/10/25 09:13:41;;;;;;;7.27;6.23;;;12.80;94.30;;;14.71;65.60;99965.56;3083201;46;20494;-69
2023/10/25 09:16:13;;;;;;;6.57;5.50;;;12.90;94.00;;;14.76;65.00;99957.78;3082615;46;20430;-70
2023/10/25 09:18:42;;;;;;;6.77;5.33;;;13.00;93.80;;;14.86;65.41;99963.38;3082474;46;20471;-67
2023/10/25 09:21:11;;;;;;;7.60;5.53;;;13.00;93.90;;;14.95;65.18;99952.50;3082400;46;20519;-68
2023/10/25 09:23:41;;;;;;;6.50;5.73;;;13.10;93.70;;;15.08;64.89;99957.63;3082887;46;20430;-66
2023/10/25 09:26:15;;;;;;;13.67;5.40;;;13.20;93.70;;;15.21;64.98;99962.78;3081835;46;20601;-68
2023/10/25 09:28:47;;;;;;;6.93;5.97;;;13.30;93.70;;;15.26;64.11;99954.97;3082019;46;20518;-66
2023/10/25 09:31:28;;;;;;;7.00;4.90;;;13.40;93.20;;;15.31;64.16;99952.41;3082269;46;20461;-66
2023/10/25 09:33:58;;;;;;;7.83;5.73;;;13.50;93.20;;;15.38;64.46;99963.78;3081696;46;21106;-67
2023/10/25 09:36:28;;;;;;;5.70;4.97;;;13.60;93.30;;;15.49;64.50;99949.78;3081357;46;21007;-67
2023/10/25 09:38:59;;;;;;;8.20;5.17;;;13.60;93.40;;;15.62;64.03;99944.25;3082338;46;20950;-67
2023/10/25 09:41:38;;;;;;;6.80;4.40;;;13.70;93.40;;;15.75;63.53;99948.56;3082785;46;20559;-68
2023/10/25 09:44:19;;;;;;;9.57;4.73;;;13.80;93.10;;;15.82;63.21;99944.78;3082369;46;21339;-67
2023/10/25 09:46:54;;;;;;;6.90;4.70;;;13.90;92.90;;;15.80;62.39;99946.84;3082191;46;20934;-68
2023/10/25 09:49:29;;;;;;;9.00;4.90;;;14.00;92.30;;;15.80;62.52;99940.75;3081350;46;20443;-65
2023/10/25 09:52:22;;;;;;;9.17;5.90;;;14.00;92.30;;;15.79;62.81;99933.81;3081397;46;20444;-67
2023/10/25 09:54:52;;;;;;;6.70;4.83;;;14.10;92.40;;;15.79;62.50;99929.31;3081456;46;21056;-67
2023/10/25 09:57:22;;;;;;;6.43;4.17;;;14.10;92.10;;;15.77;62.49;99936.69;3081292;46;20427;-68
2023/10/25 09:59:53;;;;;;;6.90;5.07;;;14.10;91.90;;;15.77;62.56;99934.03;3081031;46;20488;-68
2023/10/25 10:02:58;;;;;;;9.50;4.80;;;14.10;92.10;;;15.77;62.91;99930.56;3081279;46;20434;-68
2023/10/25 10:05:44;;;;;;;6.63;4.20;;;14.10;92.30;;;15.77;62.57;99917.31;3081269;46;20443;-67
2023/10/25 10:08:28;;;;;;;10.50;4.57;;;14.10;92.10;;;15.80;62.50;99917.66;3082107;46;20456;-67
2023/10/25 10:11:04;;;;;;;6.10;4.33;;;14.20;92.10;;;15.87;62.34;99921.03;3080962;46;20444;-67
2023/10/25 10:13:32;;;;;;;9.23;4.23;;;14.20;92.10;;;15.92;62.28;99913.19;3081249;46;20475;-67
2023/10/25 10:16:10;;;;;;;5.13;3.53;;;14.30;92.10;;;16.05;62.41;99905.00;3081981;46;21013;-65